createdAt,value
2019-05-28T00:02:00.193Z,99.90
2019-05-28T00:04:26.231Z,99.90
2019-05-28T00:06:52.305Z,99.90
2019-05-28T00:09:18.335Z,99.90
2019-05-28T00:11:44.366Z,99.90
2019-05-28T00:14:10.419Z,99.90
2019-05-28T00:16:36.450Z,99.90
2019-05-28T00:19:02.869Z,99.90
2019-05-28T00:21:29.006Z,99.90
2019-05-28T00:23:55.059Z,99.90
2019-05-28T00:26:21.102Z,99.90
2019-05-28T00:28:47.260Z,99.90
2019-05-28T00:31:13.283Z,99.90
2019-05-28T00:33:39.486Z,99.90
2019-05-28T00:36:05.608Z,99.90
2019-05-28T00:38:31.769Z,99.90
2019-05-28T00:40:57.952Z,99.90
2019-05-28T00:43:23.986Z,99.90
2019-05-28T00:45:50.037Z,99.90
2019-05-28T00:48:16.091Z,99.90
2019-05-28T00:50:42.123Z,99.90
2019-05-28T00:53:08.318Z,99.90
2019-05-28T00:55:35.158Z,99.90
2019-05-28T00:58:01.891Z,99.90
2019-05-28T01:00:48.667Z,99.90
2019-05-28T01:03:14.827Z,99.90
2019-05-28T01:05:41.070Z,99.90
2019-05-28T01:08:07.146Z,99.90
2019-05-28T01:10:33.201Z,99.90
2019-05-28T01:12:59.250Z,99.90
2019-05-28T01:15:25.325Z,99.90
2019-05-28T01:17:51.411Z,99.90
2019-05-28T01:20:17.631Z,99.90
2019-05-28T01:22:43.782Z,99.90
2019-05-28T01:25:10.033Z,99.90
2019-05-28T01:27:36.060Z,99.90
2019-05-28T01:30:03.925Z,99.90
2019-05-28T01:32:29.939Z,99.90
2019-05-28T01:34:56.001Z,99.90
2019-05-28T01:37:22.091Z,99.90
2019-05-28T01:39:48.128Z,99.90
2019-05-28T01:42:14.187Z,99.90
2019-05-28T01:44:40.251Z,99.90
2019-05-28T01:47:06.317Z,99.90
2019-05-28T01:49:32.380Z,99.90
2019-05-28T01:51:58.431Z,99.90
2019-05-28T01:54:24.467Z,99.90
2019-05-28T01:56:50.495Z,99.90
2019-05-28T01:59:18.330Z,99.90
2019-05-28T02:01:44.496Z,99.90
2019-05-28T02:04:10.547Z,99.90
2019-05-28T02:06:36.576Z,99.90
2019-05-28T02:09:05.200Z,99.90
2019-05-28T02:11:31.249Z,99.90
2019-05-28T02:13:57.417Z,99.90
2019-05-28T02:16:23.542Z,99.90
2019-05-28T02:18:49.581Z,99.90
2019-05-28T02:21:15.659Z,99.90
2019-05-28T02:23:41.697Z,99.90
2019-05-28T02:26:07.746Z,99.90
2019-05-28T02:28:33.887Z,99.90
2019-05-28T02:30:59.940Z,99.90
2019-05-28T02:33:25.969Z,99.90
2019-05-28T02:35:52.000Z,99.90
2019-05-28T02:38:18.061Z,99.90
2019-05-28T02:40:44.107Z,99.90
2019-05-28T02:43:10.223Z,99.90
2019-05-28T02:45:36.335Z,99.90
2019-05-28T02:48:03.076Z,99.90
2019-05-28T02:50:51.075Z,99.90
2019-05-28T02:53:17.107Z,99.90
2019-05-28T02:55:45.075Z,99.90
2019-05-28T02:58:13.908Z,99.90
2019-05-28T03:00:41.961Z,99.90
2019-05-28T03:03:12.511Z,99.90
2019-05-28T03:05:41.449Z,99.90
2019-05-28T03:08:10.305Z,99.90
2019-05-28T03:11:01.609Z,99.90
2019-05-28T03:13:05.665Z,99.90
2019-05-28T03:15:35.006Z,99.90
2019-05-28T03:18:02.273Z,99.90
2019-05-28T03:20:29.257Z,99.90
2019-05-28T03:22:56.382Z,99.90
2019-05-28T03:25:22.615Z,99.90
2019-05-28T03:27:48.845Z,99.90
2019-05-28T03:30:15.092Z,99.90
2019-05-28T03:32:41.257Z,99.90
2019-05-28T03:35:07.608Z,99.90
2019-05-28T03:37:34.477Z,99.90
2019-05-28T03:40:04.463Z,99.90
2019-05-28T03:42:30.808Z,99.90
2019-05-28T03:44:56.845Z,99.90
2019-05-28T03:47:23.673Z,99.90
2019-05-28T03:49:49.789Z,99.90
2019-05-28T03:52:15.803Z,99.90
2019-05-28T03:54:41.884Z,99.90
2019-05-28T03:57:07.920Z,99.90
2019-05-28T03:59:33.974Z,99.90
2019-05-28T04:02:00.033Z,99.90
2019-05-28T04:04:26.099Z,99.90
2019-05-28T04:06:52.166Z,99.90
2019-05-28T04:09:18.241Z,99.90
2019-05-28T04:11:45.375Z,99.90
2019-05-28T04:14:11.575Z,99.90
2019-05-28T04:16:37.707Z,99.90
2019-05-28T04:19:03.966Z,99.90
2019-05-28T04:21:30.108Z,99.90
2019-05-28T04:23:56.189Z,99.90
2019-05-28T04:26:22.350Z,99.90
2019-05-28T04:28:48.649Z,99.90
2019-05-28T04:31:14.683Z,99.90
2019-05-28T04:33:40.734Z,99.90
2019-05-28T04:36:06.885Z,99.90
2019-05-28T04:38:33.063Z,99.90
2019-05-28T04:40:59.115Z,99.90
2019-05-28T04:43:25.143Z,99.90
2019-05-28T04:45:51.321Z,99.90
2019-05-28T04:48:17.473Z,99.90
2019-05-28T04:50:43.604Z,99.90
2019-05-28T04:53:09.749Z,99.90
2019-05-28T04:55:35.830Z,99.90
2019-05-28T04:58:02.102Z,99.90
2019-05-28T05:00:28.154Z,99.90
2019-05-28T05:02:59.512Z,99.90
2019-05-28T05:05:22.397Z,99.90
2019-05-28T05:07:48.503Z,99.90
2019-05-28T05:10:18.785Z,99.90
2019-05-28T05:12:43.079Z,99.90
2019-05-28T05:15:09.652Z,99.90
2019-05-28T05:17:35.719Z,99.90
2019-05-28T05:20:04.161Z,99.90
2019-05-28T05:22:30.222Z,99.90
2019-05-28T05:24:56.347Z,99.90
2019-05-28T05:27:22.428Z,99.90
2019-05-28T05:29:48.469Z,99.90
2019-05-28T05:32:14.513Z,99.90
2019-05-28T05:34:40.578Z,99.90
2019-05-28T05:37:06.903Z,99.90
2019-05-28T05:39:32.971Z,99.90
2019-05-28T05:41:59.139Z,99.90
2019-05-28T05:44:25.179Z,99.90
2019-05-28T05:46:51.245Z,99.90
2019-05-28T05:49:17.286Z,99.90
2019-05-28T05:51:43.337Z,99.90
2019-05-28T05:54:09.393Z,99.90
2019-05-28T05:56:35.621Z,99.90
2019-05-28T05:59:01.935Z,99.90
2019-05-28T06:01:27.989Z,99.90
2019-05-28T06:03:54.037Z,99.90
2019-05-28T06:06:20.135Z,99.90
2019-05-28T06:08:46.221Z,99.90
2019-05-28T06:11:12.262Z,99.90
2019-05-28T06:13:38.419Z,99.90
2019-05-28T06:16:04.569Z,99.90
2019-05-28T06:18:30.638Z,99.90
2019-05-28T06:21:09.865Z,99.90
2019-05-28T06:23:24.708Z,99.90
2019-05-28T06:25:50.827Z,99.90
2019-05-28T06:28:16.881Z,99.90
2019-05-28T06:30:42.998Z,99.90
2019-05-28T06:33:09.168Z,99.90
2019-05-28T06:35:35.201Z,99.90
2019-05-28T06:38:01.227Z,99.90
2019-05-28T06:40:27.272Z,99.90
2019-05-28T06:42:53.527Z,99.90
2019-05-28T06:45:19.757Z,99.90
2019-05-28T06:47:45.863Z,99.90
2019-05-28T06:50:12.775Z,99.90
2019-05-28T06:52:39.145Z,99.90
2019-05-28T06:55:05.780Z,99.90
2019-05-28T06:57:31.822Z,99.90
2019-05-28T06:59:57.879Z,99.90
2019-05-28T07:02:24.429Z,99.90
2019-05-28T07:04:50.511Z,99.90
2019-05-28T07:07:16.574Z,99.90
2019-05-28T07:09:42.617Z,99.90
2019-05-28T07:12:08.667Z,99.90
2019-05-28T07:14:34.726Z,99.90
2019-05-28T07:17:00.952Z,99.90
2019-05-28T07:19:26.971Z,99.90
2019-05-28T07:21:53.021Z,99.90
2019-05-28T07:24:19.060Z,99.90
2019-05-28T07:26:45.107Z,99.90
2019-05-28T07:29:11.181Z,99.90
2019-05-28T07:31:37.223Z,99.90
2019-05-28T07:34:03.387Z,99.90
2019-05-28T07:36:29.416Z,99.90
2019-05-28T07:38:55.438Z,99.90
2019-05-28T07:41:21.495Z,99.90
2019-05-28T07:43:47.535Z,99.90
2019-05-28T07:46:13.592Z,99.90
2019-05-28T07:48:39.628Z,99.90
2019-05-28T07:51:05.705Z,99.90
2019-05-28T07:53:39.991Z,99.90
2019-05-28T07:55:59.923Z,99.90
2019-05-28T07:58:25.985Z,99.90
2019-05-28T08:00:52.021Z,99.90
2019-05-28T08:03:18.155Z,99.90
2019-05-28T08:05:44.313Z,99.90
2019-05-28T08:08:14.193Z,99.90
2019-05-28T08:10:41.050Z,99.90
2019-05-28T08:13:07.172Z,99.90
2019-05-28T08:15:33.712Z,99.90
2019-05-28T08:17:59.756Z,99.90
2019-05-28T08:20:25.786Z,99.90
2019-05-28T08:22:51.840Z,99.90
2019-05-28T08:25:33.735Z,99.90
2019-05-28T08:27:45.933Z,99.90
2019-05-28T08:30:12.070Z,99.90
2019-05-28T08:32:38.141Z,99.90
2019-05-28T08:35:06.405Z,99.90
2019-05-28T08:37:32.703Z,99.90
2019-05-28T08:39:58.756Z,99.90
2019-05-28T08:42:24.879Z,99.90
2019-05-28T08:44:51.018Z,99.90
2019-05-28T08:47:17.259Z,99.90
2019-05-28T08:49:43.295Z,99.90
2019-05-28T08:52:09.334Z,99.90
2019-05-28T08:54:35.426Z,99.90
2019-05-28T08:57:01.442Z,99.90
2019-05-28T08:59:27.530Z,99.90
2019-05-28T09:01:53.582Z,99.90
2019-05-28T09:04:19.790Z,99.90
2019-05-28T09:06:45.871Z,99.90
2019-05-28T09:09:12.004Z,99.90
2019-05-28T09:11:38.036Z,99.90
2019-05-28T09:14:04.098Z,99.90
2019-05-28T09:16:30.214Z,99.90
2019-05-28T09:18:56.259Z,99.90
2019-05-28T09:21:22.279Z,99.90
2019-05-28T09:23:48.385Z,99.90
2019-05-28T09:26:14.411Z,99.20
2019-05-28T09:28:40.485Z,98.70
2019-05-28T09:31:06.615Z,97.30
2019-05-28T09:33:32.669Z,99.30
2019-05-28T09:36:07.883Z,99.20
2019-05-28T09:38:26.651Z,98.90
2019-05-28T09:40:52.713Z,99.50
2019-05-28T09:43:18.769Z,99.50
2019-05-28T09:45:44.790Z,98.50
2019-05-28T09:48:10.861Z,99.30
2019-05-28T09:50:36.907Z,99.90
2019-05-28T09:53:03.288Z,99.90
2019-05-28T09:55:29.506Z,99.90
2019-05-28T09:57:55.668Z,99.50
2019-05-28T10:00:22.442Z,99.60
2019-05-28T10:02:49.790Z,98.50
2019-05-28T10:05:17.236Z,98.30
2019-05-28T10:07:43.279Z,98.20
2019-05-28T10:10:09.650Z,98.30
2019-05-28T10:12:35.686Z,98.20
2019-05-28T10:15:06.537Z,98.40
2019-05-28T10:17:32.582Z,99.10
2019-05-28T10:19:58.696Z,97.90
2019-05-28T10:22:24.740Z,96.50
2019-05-28T10:24:50.773Z,96.60
2019-05-28T10:27:16.851Z,95.90
2019-05-28T10:29:42.880Z,95.80
2019-05-28T10:32:08.932Z,96.40
2019-05-28T10:34:34.969Z,95.40
2019-05-28T10:37:01.327Z,95.30
2019-05-28T10:39:27.358Z,95.20
2019-05-28T10:41:53.533Z,95.00
2019-05-28T10:44:19.577Z,95.70
2019-05-28T10:46:45.606Z,95.70
2019-05-28T10:49:11.657Z,94.10
2019-05-28T10:51:37.745Z,95.40
2019-05-28T10:54:03.894Z,95.00
2019-05-28T10:56:29.951Z,95.40
2019-05-28T10:58:56.013Z,94.80
2019-05-28T11:01:22.055Z,94.20
2019-05-28T11:03:48.149Z,94.80
2019-05-28T11:06:14.175Z,93.80
2019-05-28T11:08:40.315Z,93.60
2019-05-28T11:11:06.349Z,93.40
2019-05-28T11:13:32.380Z,93.10
2019-05-28T11:15:58.452Z,92.20
2019-05-28T11:18:24.488Z,93.30
2019-05-28T11:20:50.559Z,90.90
2019-05-28T11:23:16.897Z,91.10
2019-05-28T11:25:43.049Z,89.60
2019-05-28T11:28:09.100Z,90.00
2019-05-28T11:30:35.133Z,90.00
2019-05-28T11:33:01.152Z,86.80
2019-05-28T11:35:27.314Z,89.00
2019-05-28T11:37:53.393Z,84.80
2019-05-28T11:40:20.016Z,86.20
2019-05-28T11:42:46.127Z,84.30
2019-05-28T11:45:17.043Z,84.60
2019-05-28T11:47:43.366Z,84.70
2019-05-28T11:50:10.091Z,84.70
2019-05-28T11:52:36.284Z,86.10
2019-05-28T11:55:06.229Z,86.20
2019-05-28T11:57:32.281Z,87.40
2019-05-28T11:59:58.322Z,88.10
2019-05-28T12:02:24.450Z,81.50
2019-05-28T12:04:52.521Z,82.30
2019-05-28T12:07:26.198Z,83.10
2019-05-28T12:09:46.584Z,82.60
2019-05-28T12:12:12.642Z,84.70
2019-05-28T12:14:38.687Z,82.50
2019-05-28T12:17:04.758Z,83.60
2019-05-28T12:19:30.781Z,82.90
2019-05-28T12:21:56.820Z,84.40
2019-05-28T12:24:22.904Z,82.20
2019-05-28T12:26:49.466Z,81.10
2019-05-28T12:29:15.680Z,84.50
2019-05-28T12:31:41.790Z,79.10
2019-05-28T12:34:07.842Z,79.20
2019-05-28T12:36:33.910Z,77.90
2019-05-28T12:39:00.037Z,80.10
2019-05-28T12:41:26.139Z,79.30
2019-05-28T12:43:52.455Z,75.20
2019-05-28T12:46:18.753Z,75.10
2019-05-28T12:48:44.805Z,78.20
2019-05-28T12:51:10.845Z,78.60
2019-05-28T12:53:49.149Z,73.60
2019-05-28T12:56:05.077Z,73.30
2019-05-28T12:58:42.277Z,72.90
2019-05-28T13:00:59.289Z,75.50
2019-05-28T13:03:25.323Z,70.60
2019-05-28T13:05:51.503Z,70.90
2019-05-28T13:08:17.582Z,70.60
2019-05-28T13:10:43.718Z,72.80
2019-05-28T13:13:09.762Z,74.70
2019-05-28T13:15:35.862Z,71.10
2019-05-28T13:18:02.002Z,72.40
2019-05-28T13:20:28.332Z,66.40
2019-05-28T13:22:54.358Z,65.40
2019-05-28T13:25:20.416Z,66.80
2019-05-28T13:27:46.459Z,65.80
2019-05-28T13:30:15.660Z,66.80
2019-05-28T13:32:42.183Z,70.40
2019-05-28T13:35:10.277Z,70.00
2019-05-28T13:37:36.422Z,71.20
2019-05-28T13:40:05.892Z,72.90
2019-05-28T13:42:31.911Z,75.20
2019-05-28T13:44:57.999Z,70.60
2019-05-28T13:47:33.763Z,71.20
2019-05-28T13:49:52.037Z,69.30
2019-05-28T13:52:18.072Z,70.90
2019-05-28T13:54:44.143Z,74.80
2019-05-28T13:57:10.186Z,74.70
2019-05-28T13:59:36.224Z,72.70
2019-05-28T14:02:02.585Z,73.20
2019-05-28T14:04:28.754Z,75.80
2019-05-28T14:06:54.876Z,74.60
2019-05-28T14:09:20.944Z,75.00
2019-05-28T14:11:46.992Z,75.80
2019-05-28T14:14:13.050Z,76.90
2019-05-28T14:16:39.105Z,77.50
2019-05-28T14:19:05.231Z,72.80
2019-05-28T14:21:31.410Z,76.00
2019-05-28T14:23:57.522Z,73.40
2019-05-28T14:26:23.554Z,73.00
2019-05-28T14:28:53.562Z,74.30
2019-05-28T14:31:17.552Z,77.50
2019-05-28T14:33:43.588Z,78.80
2019-05-28T14:36:09.640Z,81.60
2019-05-28T14:38:35.692Z,81.90
2019-05-28T14:41:02.036Z,83.60
2019-05-28T14:43:28.217Z,84.70
2019-05-28T14:45:54.326Z,85.70
2019-05-28T14:48:20.472Z,84.40
2019-05-28T14:50:46.495Z,83.80
2019-05-28T14:53:12.603Z,84.40
2019-05-28T14:55:38.659Z,83.20
2019-05-28T14:58:05.853Z,84.70
2019-05-28T15:00:32.445Z,83.40
2019-05-28T15:02:58.471Z,83.50
2019-05-28T15:05:24.564Z,81.70
2019-05-28T15:07:50.599Z,82.90
2019-05-28T15:10:17.223Z,81.10
2019-05-28T15:12:43.358Z,84.40
2019-05-28T15:15:11.070Z,86.20
2019-05-28T15:17:37.124Z,85.30
2019-05-28T15:20:07.655Z,86.10
2019-05-28T15:22:34.026Z,85.20
2019-05-28T15:25:00.035Z,86.30
2019-05-28T15:27:26.197Z,84.80
2019-05-28T15:29:52.332Z,87.20
2019-05-28T15:32:18.493Z,86.30
2019-05-28T15:34:44.665Z,83.10
2019-05-28T15:37:10.724Z,75.90
2019-05-28T15:39:40.244Z,69.90
2019-05-28T15:42:04.730Z,66.60
2019-05-28T15:44:31.236Z,63.10
2019-05-28T15:46:57.475Z,61.10
2019-05-28T15:49:23.804Z,62.00
2019-05-28T15:51:50.135Z,66.70
2019-05-28T15:54:16.247Z,64.70
2019-05-28T15:56:42.535Z,64.80
2019-05-28T15:59:08.755Z,61.80
2019-05-28T16:01:37.196Z,61.60
2019-05-28T16:04:06.666Z,62.00
2019-05-28T16:06:32.733Z,66.00
2019-05-28T16:08:58.962Z,64.10
2019-05-28T16:11:25.064Z,66.10
2019-05-28T16:13:53.783Z,72.70
2019-05-28T16:16:19.838Z,70.00
2019-05-28T16:18:46.765Z,68.50
2019-05-28T16:21:12.931Z,70.10
2019-05-28T16:23:39.234Z,71.30
2019-05-28T16:26:05.255Z,72.00
2019-05-28T16:28:33.835Z,73.10
2019-05-28T16:31:11.899Z,75.30
2019-05-28T16:33:29.067Z,74.30
2019-05-28T16:35:55.320Z,75.20
2019-05-28T16:38:22.651Z,75.00
2019-05-28T16:40:48.905Z,75.50
2019-05-28T16:43:15.325Z,76.00
2019-05-28T16:45:41.819Z,76.00
2019-05-28T16:48:07.847Z,76.10
2019-05-28T16:50:34.029Z,76.70
2019-05-28T16:53:00.077Z,76.20
2019-05-28T16:55:26.394Z,76.70
2019-05-28T16:57:52.696Z,77.20
2019-05-28T17:00:19.288Z,78.90
2019-05-28T17:02:45.596Z,78.50
2019-05-28T17:05:11.949Z,79.60
2019-05-28T17:07:39.181Z,78.50
2019-05-28T17:10:05.999Z,80.60
2019-05-28T17:12:32.277Z,79.70
2019-05-28T17:14:58.429Z,82.70
2019-05-28T17:17:24.489Z,82.60
2019-05-28T17:19:50.537Z,83.70
2019-05-28T17:22:16.709Z,83.30
2019-05-28T17:24:42.832Z,84.20
2019-05-28T17:27:08.886Z,85.20
2019-05-28T17:29:34.929Z,85.60
2019-05-28T17:32:00.964Z,84.30
2019-05-28T17:34:27.374Z,85.20
2019-05-28T17:36:53.654Z,85.40
2019-05-28T17:39:19.725Z,85.70
2019-05-28T17:41:45.885Z,86.30
2019-05-28T17:44:11.913Z,86.70
2019-05-28T17:46:38.019Z,87.50
2019-05-28T17:49:04.027Z,87.90
2019-05-28T17:51:30.110Z,88.70
2019-05-28T17:53:58.200Z,88.40
2019-05-28T17:56:24.365Z,88.90
2019-05-28T17:58:50.631Z,89.80
2019-05-28T18:01:16.751Z,90.00
2019-05-28T18:03:42.832Z,89.40
2019-05-28T18:06:09.050Z,89.60
2019-05-28T18:08:35.408Z,89.50
2019-05-28T18:11:04.861Z,88.90
2019-05-28T18:13:29.434Z,89.70
2019-05-28T18:15:55.479Z,89.60
2019-05-28T18:18:21.600Z,90.00
2019-05-28T18:20:47.731Z,90.30
2019-05-28T18:23:13.780Z,90.50
2019-05-28T18:25:39.820Z,91.00
2019-05-28T18:28:05.915Z,91.10
2019-05-28T18:30:31.956Z,90.60
2019-05-28T18:32:58.000Z,91.10
2019-05-28T18:35:24.044Z,91.30
2019-05-28T18:37:50.502Z,90.80
2019-05-28T18:40:17.518Z,91.00
2019-05-28T18:42:43.585Z,91.40
2019-05-28T18:45:09.755Z,91.50
2019-05-28T18:47:36.629Z,91.80
2019-05-28T18:50:07.270Z,92.20
2019-05-28T18:52:33.350Z,92.30
2019-05-28T18:54:59.443Z,92.50
2019-05-28T18:57:25.512Z,92.50
2019-05-28T18:59:51.541Z,92.70
2019-05-28T19:02:17.605Z,93.20
2019-05-28T19:04:43.695Z,93.50
2019-05-28T19:07:09.781Z,93.50
2019-05-28T19:09:35.831Z,93.60
2019-05-28T19:12:01.879Z,93.90
2019-05-28T19:14:27.941Z,94.10
2019-05-28T19:16:53.993Z,94.30
2019-05-28T19:19:20.066Z,94.20
2019-05-28T19:21:46.125Z,94.40
2019-05-28T19:24:12.167Z,94.40
2019-05-28T19:26:38.198Z,94.80
2019-05-28T19:29:04.370Z,94.70
2019-05-28T19:31:31.264Z,95.00
2019-05-28T19:33:57.299Z,95.00
2019-05-28T19:36:24.061Z,94.80
2019-05-28T19:38:50.695Z,94.80
2019-05-28T19:41:16.762Z,94.80
2019-05-28T19:44:02.781Z,94.90
2019-05-28T19:46:28.835Z,94.90
2019-05-28T19:48:54.876Z,95.00
2019-05-28T19:51:20.916Z,95.10
2019-05-28T19:53:47.005Z,95.10
2019-05-28T19:56:13.131Z,95.10
2019-05-28T19:58:39.185Z,95.10
2019-05-28T20:01:05.358Z,95.10
2019-05-28T20:03:31.529Z,95.10
2019-05-28T20:05:57.691Z,95.10
2019-05-28T20:08:23.752Z,95.10
2019-05-28T20:10:50.796Z,95.30
2019-05-28T20:13:17.125Z,95.70
2019-05-28T20:15:43.259Z,95.40
2019-05-28T20:18:25.570Z,95.40
2019-05-28T20:20:37.269Z,95.30
2019-05-28T20:23:03.447Z,95.30
2019-05-28T20:25:29.455Z,95.10
2019-05-28T20:27:56.587Z,95.80
2019-05-28T20:30:24.624Z,96.50
2019-05-28T20:32:50.797Z,97.20
2019-05-28T20:35:16.936Z,97.50
2019-05-28T20:37:42.992Z,97.80
2019-05-28T20:40:10.291Z,97.70
2019-05-28T20:42:37.376Z,97.80
2019-05-28T20:45:06.900Z,97.00
2019-05-28T20:47:33.170Z,96.70
2019-05-28T20:49:59.229Z,96.80
2019-05-28T20:52:25.270Z,97.00
2019-05-28T20:54:51.342Z,96.90
2019-05-28T20:57:17.480Z,97.10
2019-05-28T20:59:43.609Z,96.90
2019-05-28T21:02:09.731Z,96.90
2019-05-28T21:04:35.802Z,96.90
2019-05-28T21:07:01.987Z,96.70
2019-05-28T21:09:28.033Z,96.40
2019-05-28T21:11:54.543Z,96.40
2019-05-28T21:14:20.745Z,96.40
2019-05-28T21:16:46.877Z,96.20
2019-05-28T21:19:12.946Z,96.40
2019-05-28T21:21:39.117Z,96.40
2019-05-28T21:24:05.140Z,96.40
2019-05-28T21:26:31.265Z,96.20
2019-05-28T21:28:58.412Z,96.10
2019-05-28T21:31:24.544Z,96.20
2019-05-28T21:33:50.742Z,96.20
2019-05-28T21:36:16.950Z,96.10
2019-05-28T21:38:43.016Z,95.90
2019-05-28T21:41:09.055Z,95.80
2019-05-28T21:43:35.860Z,95.90
2019-05-28T21:46:02.412Z,95.70
2019-05-28T21:48:28.571Z,95.70
2019-05-28T21:50:54.615Z,95.70
2019-05-28T21:53:20.653Z,96.20
2019-05-28T21:55:46.705Z,95.90
2019-05-28T21:58:12.770Z,95.90
2019-05-28T22:00:47.269Z,95.90
2019-05-28T22:03:13.411Z,95.90
2019-05-28T22:05:39.457Z,95.80
2019-05-28T22:08:05.519Z,95.80
2019-05-28T22:10:31.693Z,95.80
2019-05-28T22:12:57.843Z,95.80
2019-05-28T22:15:23.916Z,95.80
2019-05-28T22:17:50.053Z,95.70
2019-05-28T22:20:16.191Z,95.80
2019-05-28T22:22:42.250Z,95.90
2019-05-28T22:25:08.806Z,96.00
2019-05-28T22:27:34.911Z,96.00
2019-05-28T22:30:04.319Z,95.90
2019-05-28T22:32:29.504Z,96.00
2019-05-28T22:34:55.845Z,96.20
2019-05-28T22:37:21.993Z,96.70
2019-05-28T22:39:48.047Z,96.90
2019-05-28T22:42:14.093Z,97.50
2019-05-28T22:44:40.153Z,97.30
2019-05-28T22:47:07.250Z,96.80
2019-05-28T22:49:33.581Z,96.60
2019-05-28T22:51:59.828Z,96.60
2019-05-28T22:54:26.023Z,96.70
2019-05-28T22:56:52.111Z,96.50
2019-05-28T22:59:18.170Z,96.50
2019-05-28T23:01:44.218Z,96.70
2019-05-28T23:04:10.269Z,96.90
2019-05-28T23:06:36.309Z,97.30
2019-05-28T23:09:05.637Z,97.10
2019-05-28T23:11:31.741Z,97.00
2019-05-28T23:13:57.781Z,97.10
2019-05-28T23:16:23.945Z,97.10
2019-05-28T23:18:49.979Z,97.40
2019-05-28T23:21:16.000Z,97.00
2019-05-28T23:23:42.037Z,97.30
2019-05-28T23:26:08.133Z,97.10
2019-05-28T23:28:34.170Z,98.10
2019-05-28T23:31:00.250Z,97.50
2019-05-28T23:33:26.388Z,97.50
2019-05-28T23:35:52.441Z,97.50
2019-05-28T23:38:18.464Z,97.60
2019-05-28T23:40:44.521Z,98.20
2019-05-28T23:43:11.518Z,98.20
2019-05-28T23:45:37.707Z,98.30
2019-05-28T23:48:10.849Z,98.60
2019-05-28T23:50:32.252Z,98.20
2019-05-28T23:52:58.321Z,98.90
2019-05-28T23:55:24.351Z,99.00
2019-05-28T23:57:50.419Z,98.90
